createdAt,value
2022-11-23T00:01:35.882Z,98331.94
2022-11-23T00:04:11.887Z,98333.53
2022-11-23T00:06:40.004Z,98336.41
2022-11-23T00:09:08.752Z,98341.63
2022-11-23T00:11:36.636Z,98340.03
2022-11-23T00:14:04.570Z,98340.75
2022-11-23T00:16:32.011Z,98333.84
2022-11-23T00:19:01.397Z,98333.31
2022-11-23T00:21:32.616Z,98330.63
2022-11-23T00:23:59.955Z,98337.56
2022-11-23T00:26:27.448Z,98336.47
2022-11-23T00:28:55.101Z,98344.13
2022-11-23T00:31:27.263Z,98349.22
2022-11-23T00:33:56.921Z,98346.63
2022-11-23T00:36:26.780Z,98352.03
2022-11-23T00:38:54.691Z,98353.22
2022-11-23T00:41:26.262Z,98350.97
2022-11-23T00:43:53.630Z,98356.78
2022-11-23T00:46:28.538Z,98358.44
2022-11-23T00:48:57.772Z,98358.38
2022-11-23T00:51:36.154Z,98364.00
2022-11-23T00:54:05.583Z,98363.69
2022-11-23T00:56:35.573Z,98376.34
2022-11-23T00:59:04.109Z,98372.88
2022-11-23T01:01:36.912Z,98376.00
2022-11-23T01:04:07.371Z,98386.84
2022-11-23T01:06:40.257Z,98382.72
2022-11-23T01:09:18.589Z,98399.84
2022-11-23T01:11:46.043Z,98395.84
2022-11-23T01:14:34.946Z,98399.66
2022-11-23T01:17:05.165Z,98401.88
2022-11-23T01:19:35.314Z,98405.72
2022-11-23T01:22:02.546Z,98413.34
2022-11-23T01:24:30.061Z,98416.19
2022-11-23T01:26:57.480Z,98413.34
2022-11-23T01:29:25.858Z,98419.75
2022-11-23T01:31:53.084Z,98433.66
2022-11-23T01:34:22.064Z,98433.97
2022-11-23T01:36:50.784Z,98441.41
2022-11-23T01:44:32.165Z,98444.53
2022-11-23T01:47:07.360Z,98444.47
2022-11-23T01:49:46.856Z,98451.28
2022-11-23T01:52:23.159Z,98446.03
2022-11-23T01:54:59.246Z,98450.81
2022-11-23T01:57:41.548Z,98443.72
2022-11-23T02:00:10.243Z,98449.78
2022-11-23T02:02:55.342Z,98457.88
2022-11-23T02:05:47.840Z,98456.28
2022-11-23T02:08:17.468Z,98453.50
2022-11-23T02:10:45.484Z,98461.69
2022-11-23T02:13:13.963Z,98463.59
2022-11-23T02:15:41.635Z,98475.50
2022-11-23T02:18:24.880Z,98470.75
2022-11-23T02:20:53.009Z,98477.16
2022-11-23T02:23:55.925Z,98483.69
2022-11-23T02:26:28.211Z,98493.50
2022-11-23T02:29:11.331Z,98491.91
2022-11-23T02:31:38.716Z,98495.38
2022-11-23T02:34:05.881Z,98495.75
2022-11-23T02:36:45.285Z,98503.16
2022-11-23T02:39:49.108Z,98506.38
2022-11-23T02:42:16.537Z,98514.47
2022-11-23T02:45:08.351Z,98514.13
2022-11-23T02:47:37.581Z,98515.63
2022-11-23T02:50:05.420Z,98514.81
2022-11-23T02:52:32.583Z,98518.25
2022-11-23T02:54:59.922Z,98521.41
2022-11-23T02:57:27.081Z,98521.31
2022-11-23T02:59:54.251Z,98529.91
2022-11-23T03:02:22.020Z,98530.75
2022-11-23T03:04:49.244Z,98538.69
2022-11-23T03:07:19.445Z,98538.00
2022-11-23T03:09:48.773Z,98537.94
2022-11-23T03:12:16.716Z,98535.16
2022-11-23T03:14:44.445Z,98532.78
2022-11-23T03:17:11.581Z,98526.56
2022-11-23T03:19:41.847Z,98529.91
2022-11-23T03:22:10.652Z,98527.72
2022-11-23T03:24:38.108Z,98539.22
2022-11-23T03:27:06.536Z,98536.19
2022-11-23T03:29:34.513Z,98534.97
2022-11-23T03:32:08.788Z,98526.03
2022-11-23T03:34:36.128Z,98533.16
2022-11-23T03:37:04.460Z,98530.94
2022-11-23T03:39:33.096Z,98527.06
2022-11-23T03:42:19.107Z,98531.38
2022-11-23T03:44:47.272Z,98544.41
2022-11-23T03:47:16.391Z,98542.31
2022-11-23T03:49:44.132Z,98542.03
2022-11-23T03:52:11.295Z,98540.88
2022-11-23T03:54:38.579Z,98544.94
2022-11-23T03:57:06.360Z,98540.13
2022-11-23T03:59:33.976Z,98545.28
2022-11-23T04:02:01.376Z,98544.88
2022-11-23T04:04:33.241Z,98542.16
2022-11-23T04:07:08.622Z,98549.91
2022-11-23T04:09:41.232Z,98535.81
2022-11-23T04:12:23.372Z,98536.25
2022-11-23T04:14:50.678Z,98537.44
2022-11-23T04:17:18.696Z,98540.63
2022-11-23T04:19:45.911Z,98550.56
2022-11-23T04:22:15.095Z,98550.88
2022-11-23T04:24:43.151Z,98550.19
2022-11-23T04:27:10.460Z,98560.69
2022-11-23T04:29:38.477Z,98561.47
2022-11-23T04:32:05.753Z,98564.06
2022-11-23T04:34:33.865Z,98564.16
2022-11-23T04:37:04.323Z,98562.84
2022-11-23T04:39:38.420Z,98557.09
2022-11-23T04:42:14.542Z,98546.78
2022-11-23T04:44:48.169Z,98553.06
2022-11-23T04:47:15.893Z,98564.94
2022-11-23T04:49:45.489Z,98564.13
2022-11-23T04:52:12.689Z,98567.41
2022-11-23T04:54:45.933Z,98561.88
2022-11-23T04:57:13.091Z,98566.50
2022-11-23T04:59:40.846Z,98562.47
2022-11-23T05:02:08.343Z,98557.13
2022-11-23T05:04:45.866Z,98558.31
2022-11-23T05:07:14.287Z,98551.41
2022-11-23T05:09:44.420Z,98543.97
2022-11-23T05:12:21.795Z,98549.19
2022-11-23T05:14:48.985Z,98554.38
2022-11-23T05:17:21.460Z,98556.44
2022-11-23T05:19:51.148Z,98558.13
2022-11-23T05:22:18.743Z,98562.28
2022-11-23T05:24:45.985Z,98561.25
2022-11-23T05:27:17.919Z,98567.63
2022-11-23T05:29:45.699Z,98556.72
2022-11-23T05:32:12.944Z,98554.16
2022-11-23T05:34:40.176Z,98558.13
2022-11-23T05:37:09.905Z,98556.31
2022-11-23T05:39:43.252Z,98557.53
2022-11-23T05:42:10.481Z,98559.78
2022-11-23T05:44:41.257Z,98561.06
2022-11-23T05:47:14.348Z,98570.34
2022-11-23T05:49:41.741Z,98582.25
2022-11-23T05:52:09.108Z,98590.47
2022-11-23T05:54:38.095Z,98599.13
2022-11-23T05:57:10.716Z,98600.09
2022-11-23T05:59:41.826Z,98603.66
2022-11-23T06:02:13.012Z,98619.16
2022-11-23T06:04:40.299Z,98612.53
2022-11-23T06:07:11.662Z,98618.16
2022-11-23T06:09:59.629Z,98621.47
2022-11-23T06:12:30.976Z,98630.75
2022-11-23T06:14:59.691Z,98632.94
2022-11-23T06:17:28.160Z,98633.94
2022-11-23T06:20:00.883Z,98646.59
2022-11-23T06:22:28.319Z,98653.00
2022-11-23T06:25:01.618Z,98653.97
2022-11-23T06:27:40.117Z,98660.84
2022-11-23T06:30:16.213Z,98672.16
2022-11-23T06:32:43.893Z,98673.53
2022-11-23T06:35:11.132Z,98681.91
2022-11-23T06:37:42.652Z,98688.00
2022-11-23T06:40:12.365Z,98692.16
2022-11-23T06:42:40.701Z,98696.19
2022-11-23T06:45:19.415Z,98704.47
2022-11-23T06:47:48.772Z,98716.88
2022-11-23T06:50:16.447Z,98724.72
2022-11-23T06:52:46.148Z,98726.81
2022-11-23T06:55:13.863Z,98738.34
2022-11-23T06:57:41.111Z,98738.34
2022-11-23T07:00:11.429Z,98740.66
2022-11-23T07:02:39.291Z,98747.31
2022-11-23T07:05:07.233Z,98749.25
2022-11-23T07:07:36.627Z,98754.97
2022-11-23T07:10:13.687Z,98752.94
2022-11-23T07:12:50.909Z,98750.09
2022-11-23T07:15:20.867Z,98754.28
2022-11-23T07:17:48.664Z,98752.59
2022-11-23T07:20:16.610Z,98744.56
2022-11-23T07:22:45.104Z,98756.63
2022-11-23T07:25:16.528Z,98740.31
2022-11-23T07:27:44.306Z,98736.03
2022-11-23T07:30:12.696Z,98733.91
2022-11-23T07:32:40.068Z,98746.22
2022-11-23T07:35:08.741Z,98743.97
2022-11-23T07:37:38.629Z,98747.97
2022-11-23T07:40:07.406Z,98765.38
2022-11-23T07:42:41.489Z,98766.78
2022-11-23T07:45:12.196Z,98771.34
2022-11-23T07:47:43.983Z,98778.13
2022-11-23T07:50:13.351Z,98785.25
2022-11-23T07:52:41.578Z,98784.97
2022-11-23T07:55:09.525Z,98781.66
2022-11-23T07:57:36.725Z,98777.91
2022-11-23T08:00:05.282Z,98776.75
2022-11-23T08:02:57.895Z,98767.25
2022-11-23T08:05:28.012Z,98775.00
2022-11-23T08:08:00.837Z,98775.03
2022-11-23T08:10:30.875Z,98778.44
2022-11-23T08:13:05.017Z,98783.69
2022-11-23T08:15:33.023Z,98792.31
2022-11-23T08:18:04.464Z,98795.78
2022-11-23T08:20:33.424Z,98800.72
2022-11-23T08:23:00.736Z,98797.66
2022-11-23T08:25:29.769Z,98807.94
2022-11-23T08:28:03.980Z,98812.59
2022-11-23T08:30:33.930Z,98814.25
2022-11-23T08:33:08.920Z,98814.22
2022-11-23T08:35:38.897Z,98818.53
2022-11-23T08:38:08.897Z,98818.91
2022-11-23T08:40:37.876Z,98816.97
2022-11-23T08:43:06.342Z,98814.03
2022-11-23T08:45:33.616Z,98821.91
2022-11-23T08:48:02.861Z,98815.16
2022-11-23T08:50:30.726Z,98811.69
2022-11-23T08:52:59.570Z,98820.78
2022-11-23T08:55:29.071Z,98821.03
2022-11-23T08:58:00.373Z,98824.94
2022-11-23T09:00:29.576Z,98825.00
2022-11-23T09:02:58.971Z,98836.88
2022-11-23T09:05:29.149Z,98831.34
2022-11-23T09:08:00.712Z,98829.81
2022-11-23T09:10:28.609Z,98817.19
2022-11-23T09:12:55.874Z,98821.44
2022-11-23T09:15:23.730Z,98818.22
2022-11-23T09:17:51.016Z,98815.59
2022-11-23T09:20:18.625Z,98819.72
2022-11-23T09:22:55.463Z,98814.16
2022-11-23T09:25:23.628Z,98825.72
2022-11-23T09:27:58.699Z,98826.03
2022-11-23T09:30:27.824Z,98827.47
2022-11-23T09:32:58.193Z,98825.72
2022-11-23T09:35:25.771Z,98824.66
2022-11-23T09:37:58.721Z,98821.41
2022-11-23T09:40:37.585Z,98823.72
2022-11-23T09:43:40.855Z,98819.53
2022-11-23T09:46:27.709Z,98806.34
2022-11-23T09:49:14.726Z,98801.22
2022-11-23T09:51:43.517Z,98795.22
2022-11-23T09:54:34.382Z,98792.53
2022-11-23T09:57:04.749Z,98793.59
2022-11-23T09:59:43.022Z,98795.47
2022-11-23T10:02:28.737Z,98789.56
2022-11-23T10:05:00.407Z,98803.44
2022-11-23T10:08:09.156Z,98811.03
2022-11-23T10:11:11.228Z,98803.13
2022-11-23T10:14:19.244Z,98803.81
2022-11-23T10:16:59.001Z,98809.41
2022-11-23T10:20:03.410Z,98808.16
2022-11-23T10:23:00.413Z,98817.88
2022-11-23T10:26:00.303Z,98823.16
2022-11-23T10:28:32.558Z,98809.63
2022-11-23T10:31:21.331Z,98814.91
2022-11-23T10:34:23.737Z,98817.69
2022-11-23T10:36:50.953Z,98817.47
2022-11-23T10:39:26.501Z,98824.69
2022-11-23T10:41:59.962Z,98816.63
2022-11-23T10:44:36.732Z,98792.63
2022-11-23T10:47:05.080Z,98785.72
2022-11-23T10:49:36.955Z,98792.63
2022-11-23T10:52:30.979Z,98801.63
2022-11-23T10:55:02.197Z,98811.63
2022-11-23T10:57:44.877Z,98800.72
2022-11-23T11:00:15.666Z,98805.31
2022-11-23T11:02:49.439Z,98797.09
2022-11-23T11:08:34.205Z,98785.72
2022-11-23T11:11:33.513Z,98787.41
2022-11-23T11:14:23.270Z,98783.47
2022-11-23T11:16:57.965Z,98785.47
2022-11-23T11:19:30.830Z,98791.09
2022-11-23T11:22:04.704Z,98774.19
2022-11-23T11:24:46.810Z,98782.25
2022-11-23T11:27:20.462Z,98788.78
2022-11-23T11:29:52.296Z,98782.06
2022-11-23T11:33:13.836Z,98784.50
2022-11-23T11:35:50.434Z,98780.00
2022-11-23T11:38:27.806Z,98779.88
2022-11-23T11:40:59.566Z,98777.03
2022-11-23T11:43:40.561Z,98779.53
2022-11-23T11:46:35.455Z,98769.81
2022-11-23T11:49:35.378Z,98778.22
2022-11-23T11:52:15.573Z,98775.38
2022-11-23T11:55:14.323Z,98760.56
2022-11-23T11:57:52.156Z,98768.38
2022-11-23T12:00:21.473Z,98761.47
2022-11-23T12:03:30.865Z,98755.56
2022-11-23T12:06:16.128Z,98754.66
2022-11-23T12:09:16.718Z,98753.81
2022-11-23T12:11:44.188Z,98746.44
2022-11-23T12:14:16.440Z,98745.69
2022-11-23T12:17:32.019Z,98745.69
2022-11-23T12:20:58.990Z,98746.13
2022-11-23T12:23:38.592Z,98748.84
2022-11-23T12:26:45.658Z,98750.09
2022-11-23T12:29:37.533Z,98747.97
2022-11-23T12:33:00.177Z,98745.66
2022-11-23T12:36:03.956Z,98742.44
2022-11-23T12:38:50.730Z,98739.00
2022-11-23T12:41:45.232Z,98741.63
2022-11-23T12:44:47.936Z,98731.72
2022-11-23T12:47:42.866Z,98738.03
2022-11-23T12:50:38.285Z,98728.84
2022-11-23T12:53:50.130Z,98724.50
2022-11-23T12:57:14.987Z,98723.69
2022-11-23T13:00:16.100Z,98729.22
2022-11-23T13:02:58.292Z,98727.50
2022-11-23T13:05:52.392Z,98730.19
2022-11-23T13:08:47.225Z,98722.69
2022-11-23T13:11:50.592Z,98722.91
2022-11-23T13:15:07.232Z,98724.72
2022-11-23T13:18:00.088Z,98724.28
2022-11-23T13:20:50.287Z,98719.69
2022-11-23T13:23:21.588Z,98724.91
2022-11-23T13:26:26.472Z,98715.41
2022-11-23T13:29:00.298Z,98719.59
2022-11-23T13:31:31.690Z,98729.81
2022-11-23T13:34:02.673Z,98724.72
2022-11-23T13:36:49.201Z,98724.72
2022-11-23T13:39:47.560Z,98728.88
2022-11-23T13:42:15.230Z,98734.25
2022-11-23T13:44:42.484Z,98726.94
2022-11-23T13:47:16.240Z,98730.59
2022-11-23T13:49:52.718Z,98729.25
2022-11-23T13:52:22.871Z,98724.91
2022-11-23T13:55:33.648Z,98735.09
2022-11-23T13:58:27.052Z,98732.72
2022-11-23T14:00:57.999Z,98735.84
2022-11-23T14:03:49.118Z,98738.19
2022-11-23T14:06:57.195Z,98734.91
2022-11-23T14:09:54.152Z,98744.44
2022-11-23T14:12:48.946Z,98740.66
2022-11-23T14:15:28.108Z,98738.72
2022-11-23T14:18:04.040Z,98743.91
2022-11-23T14:20:56.402Z,98732.25
2022-11-23T14:24:00.699Z,98743.81
2022-11-23T14:27:45.296Z,98736.44
2022-11-23T14:30:57.555Z,98740.16
2022-11-23T14:33:39.578Z,98742.22
2022-11-23T14:36:17.771Z,98737.59
2022-11-23T14:39:47.630Z,98746.38
2022-11-23T14:42:23.525Z,98745.31
2022-11-23T14:44:52.427Z,98749.59
2022-11-23T14:47:31.742Z,98753.53
2022-11-23T14:49:59.111Z,98762.63
2022-11-23T14:52:32.352Z,98762.94
2022-11-23T14:55:05.978Z,98772.19
2022-11-23T14:57:46.314Z,98770.25
2022-11-23T15:00:37.279Z,98769.19
2022-11-23T15:03:49.579Z,98773.88
2022-11-23T15:06:16.567Z,98773.63
2022-11-23T15:09:13.313Z,98774.69
2022-11-23T15:11:40.480Z,98784.91
2022-11-23T15:14:21.561Z,98788.63
2022-11-23T15:16:49.404Z,98790.69
2022-11-23T15:19:29.449Z,98793.66
2022-11-23T15:21:57.569Z,98798.38
2022-11-23T15:24:27.247Z,98794.56
2022-11-23T15:27:12.042Z,98796.16
2022-11-23T15:29:39.901Z,98793.88
2022-11-23T15:32:33.288Z,98794.72
2022-11-23T15:35:07.820Z,98794.72
2022-11-23T15:37:46.934Z,98809.81
2022-11-23T15:40:19.439Z,98804.75
2022-11-23T15:42:50.888Z,98813.50
2022-11-23T15:45:53.308Z,98817.13
2022-11-23T15:48:32.642Z,98812.09
2022-11-23T15:51:05.472Z,98821.41
2022-11-23T15:53:53.150Z,98819.41
2022-11-23T15:56:37.438Z,98830.25
2022-11-23T15:59:51.796Z,98829.81
2022-11-23T16:02:25.728Z,98825.03
2022-11-23T16:05:17.345Z,98832.69
2022-11-23T16:08:00.106Z,98835.63
2022-11-23T16:10:37.473Z,98832.66
2022-11-23T16:13:08.730Z,98846.31
2022-11-23T16:15:38.711Z,98837.09
2022-11-23T16:18:12.830Z,98832.97
2022-11-23T16:20:52.151Z,98832.88
2022-11-23T16:23:25.577Z,98832.34
2022-11-23T16:26:04.324Z,98837.41
2022-11-23T16:28:35.057Z,98837.38
2022-11-23T16:31:03.154Z,98847.63
2022-11-23T16:33:30.439Z,98851.44
2022-11-23T16:35:57.824Z,98852.75
2022-11-23T16:38:25.504Z,98857.97
2022-11-23T16:40:52.812Z,98867.66
2022-11-23T16:43:20.151Z,98881.16
2022-11-23T16:45:51.163Z,98877.19
2022-11-23T16:48:41.002Z,98880.53
2022-11-23T16:51:11.609Z,98870.94
2022-11-23T16:54:11.832Z,98878.81
2022-11-23T16:56:31.026Z,98878.56
2022-11-23T16:58:58.241Z,98885.06
2022-11-23T17:01:29.622Z,98880.19
2022-11-23T17:03:57.044Z,98883.19
2022-11-23T17:06:24.465Z,98887.97
2022-11-23T17:09:00.483Z,98902.88
2022-11-23T17:11:36.895Z,98906.00
2022-11-23T17:14:04.590Z,98903.00
2022-11-23T17:16:33.200Z,98906.06
2022-11-23T17:19:00.520Z,98922.88
2022-11-23T17:21:27.688Z,98923.59
2022-11-23T17:23:54.988Z,98927.63
2022-11-23T17:26:40.445Z,98934.38
2022-11-23T17:29:19.358Z,98940.97
2022-11-23T17:31:47.820Z,98946.78
2022-11-23T17:34:16.364Z,98949.38
2022-11-23T17:36:46.557Z,98948.22
2022-11-23T17:39:28.263Z,98953.88
2022-11-23T17:42:03.077Z,98960.47
2022-11-23T17:44:32.633Z,98961.88
2022-11-23T17:47:00.538Z,98965.47
2022-11-23T17:49:28.532Z,98970.47
2022-11-23T17:51:56.307Z,98972.88
2022-11-23T17:54:24.378Z,98983.88
2022-11-23T17:56:52.178Z,98983.88
2022-11-23T17:59:19.619Z,98984.56
2022-11-23T18:01:46.925Z,98992.88
2022-11-23T18:04:14.192Z,98993.31
2022-11-23T18:06:41.435Z,98999.47
2022-11-23T18:09:11.673Z,99002.50
2022-11-23T18:11:38.913Z,99005.38
2022-11-23T18:14:06.289Z,99013.84
2022-11-23T18:16:33.575Z,99024.06
2022-11-23T18:19:00.781Z,99026.09
2022-11-23T18:21:27.924Z,99031.69
2022-11-23T18:23:57.903Z,99033.56
2022-11-23T18:26:29.683Z,99031.16
2022-11-23T18:28:57.892Z,99030.47
2022-11-23T18:31:25.133Z,99034.84
2022-11-23T18:33:52.424Z,99043.13
2022-11-23T18:36:20.279Z,99045.53
2022-11-23T18:38:48.118Z,99052.16
2022-11-23T18:41:17.328Z,99052.16
2022-11-23T18:43:45.551Z,99054.34
2022-11-23T18:46:21.343Z,99058.09
2022-11-23T18:48:50.536Z,99057.84
2022-11-23T18:51:18.979Z,99066.47
2022-11-23T18:53:47.810Z,99070.63
2022-11-23T18:56:15.468Z,99080.63
2022-11-23T18:58:45.725Z,99071.88
2022-11-23T19:01:20.400Z,99071.06
2022-11-23T19:03:51.740Z,99077.25
2022-11-23T19:06:22.449Z,99078.03
2022-11-23T19:08:53.851Z,99076.97
2022-11-23T19:11:25.665Z,99080.53
2022-11-23T19:13:58.793Z,99092.91
2022-11-23T19:16:31.300Z,99090.13
2022-11-23T19:19:04.049Z,99102.09
2022-11-23T19:21:34.370Z,99105.69
2022-11-23T19:24:02.332Z,99114.22
2022-11-23T19:26:31.044Z,99124.88
2022-11-23T19:28:59.360Z,99126.59
2022-11-23T19:31:30.454Z,99141.22
2022-11-23T19:34:01.313Z,99152.97
2022-11-23T19:36:30.932Z,99146.53
2022-11-23T19:39:00.523Z,99152.22
2022-11-23T19:41:30.679Z,99140.97
2022-11-23T19:44:00.599Z,99144.72
2022-11-23T19:46:30.767Z,99148.16
2022-11-23T19:48:58.849Z,99149.91
2022-11-23T19:51:27.904Z,99137.34
2022-11-23T19:53:57.567Z,99142.16
2022-11-23T19:56:28.757Z,99136.06
2022-11-23T19:59:00.248Z,99137.97
2022-11-23T20:01:32.762Z,99123.34
2022-11-23T20:04:08.694Z,99119.22
2022-11-23T20:06:41.993Z,99104.75
2022-11-23T20:09:22.543Z,99102.34
2022-11-23T20:11:51.810Z,99099.56
2022-11-23T20:14:20.472Z,99112.78
2022-11-23T20:16:48.215Z,99116.06
2022-11-23T20:19:15.463Z,99117.91
2022-11-23T20:21:42.722Z,99117.25
2022-11-23T20:24:15.337Z,99121.34
2022-11-23T20:26:43.208Z,99128.53
2022-11-23T20:29:11.364Z,99128.06
2022-11-23T20:31:38.927Z,99127.88
2022-11-23T20:34:08.834Z,99133.56
2022-11-23T20:36:38.491Z,99127.81
2022-11-23T20:39:10.893Z,99130.22
2022-11-23T20:41:39.007Z,99128.34
2022-11-23T20:44:14.707Z,99127.19
2022-11-23T20:49:32.820Z,99129.00
2022-11-23T20:52:01.811Z,99138.16
2022-11-23T20:54:29.401Z,99127.97
2022-11-23T20:56:59.840Z,99136.19
2022-11-23T20:59:27.294Z,99130.00
2022-11-23T21:01:54.712Z,99133.63
2022-11-23T21:04:21.949Z,99124.47
2022-11-23T21:06:49.157Z,99137.06
2022-11-23T21:09:17.030Z,99148.03
2022-11-23T21:12:03.150Z,99150.34
2022-11-23T21:14:32.686Z,99162.56
2022-11-23T21:17:01.290Z,99156.19
2022-11-23T21:19:34.114Z,99157.41
2022-11-23T21:22:12.894Z,99167.16
2022-11-23T21:24:41.206Z,99181.69
2022-11-23T21:27:13.149Z,99176.31
2022-11-23T21:29:40.574Z,99172.25
2022-11-23T21:32:07.795Z,99175.13
2022-11-23T21:34:35.479Z,99183.47
2022-11-23T21:37:02.800Z,99181.31
2022-11-23T21:39:31.013Z,99180.53
2022-11-23T21:41:58.741Z,99179.56
2022-11-23T21:44:26.407Z,99184.66
2022-11-23T21:46:53.759Z,99178.94
2022-11-23T21:49:21.235Z,99182.75
2022-11-23T21:51:48.704Z,99180.88
2022-11-23T21:54:16.441Z,99187.53
2022-11-23T21:56:46.041Z,99183.06
2022-11-23T21:59:13.493Z,99192.91
2022-11-23T22:01:41.959Z,99195.59
2022-11-23T22:04:15.269Z,99193.13
2022-11-23T22:06:44.454Z,99198.44
2022-11-23T22:09:13.119Z,99204.63
2022-11-23T22:11:43.249Z,99212.53
2022-11-23T22:14:14.804Z,99222.44
2022-11-23T22:16:49.599Z,99226.25
2022-11-23T22:19:17.486Z,99228.31
2022-11-23T22:21:46.668Z,99223.63
2022-11-23T22:24:18.001Z,99227.06
2022-11-23T22:26:47.472Z,99220.31
2022-11-23T22:29:15.852Z,99226.19
2022-11-23T22:31:43.655Z,99228.19
2022-11-23T22:34:13.978Z,99229.72
2022-11-23T22:36:41.926Z,99239.22
2022-11-23T22:39:09.945Z,99241.00
2022-11-23T22:41:38.166Z,99236.72
2022-11-23T22:44:10.739Z,99237.91
2022-11-23T22:46:39.409Z,99247.28
2022-11-23T22:49:06.875Z,99237.41
2022-11-23T22:51:34.206Z,99242.31
2022-11-23T22:54:01.984Z,99236.13
2022-11-23T22:56:30.794Z,99239.75
2022-11-23T22:58:58.474Z,99244.59
2022-11-23T23:01:29.948Z,99240.25
2022-11-23T23:04:01.426Z,99249.66
2022-11-23T23:06:36.577Z,99255.31
2022-11-23T23:09:07.223Z,99248.19
2022-11-23T23:11:36.339Z,99248.44
2022-11-23T23:14:04.029Z,99243.63
2022-11-23T23:16:31.575Z,99257.91
2022-11-23T23:18:59.831Z,99264.06
2022-11-23T23:21:29.795Z,99282.03
2022-11-23T23:24:01.024Z,99289.44
2022-11-23T23:26:29.758Z,99296.97
2022-11-23T23:29:00.424Z,99292.31
2022-11-23T23:31:29.268Z,99288.66
2022-11-23T23:33:57.121Z,99303.50
2022-11-23T23:36:24.756Z,99308.75
2022-11-23T23:38:52.652Z,99297.06
2022-11-23T23:41:20.583Z,99301.69
2022-11-23T23:43:50.968Z,99293.28
2022-11-23T23:46:18.360Z,99298.88
2022-11-23T23:48:46.146Z,99301.31
2022-11-23T23:51:17.820Z,99305.69
2022-11-23T23:53:46.718Z,99310.69
2022-11-23T23:56:25.652Z,99307.81
2022-11-23T23:58:56.873Z,99307.97
